createdAt,value
2019-04-04T00:00:50.327Z,99872.70
2019-04-04T00:03:20.930Z,99873.05
2019-04-04T00:05:49.672Z,99867.95
2019-04-04T00:08:18.586Z,99871.09
2019-04-04T00:10:47.640Z,99862.45
2019-04-04T00:13:16.547Z,99857.52
2019-04-04T00:15:46.043Z,99864.89
2019-04-04T00:18:15.047Z,99860.66
2019-04-04T00:20:43.689Z,99854.95
2019-04-04T00:23:12.321Z,99849.03
2019-04-04T00:25:41.230Z,99852.89
2019-04-04T00:28:10.816Z,99853.33
2019-04-04T00:30:40.297Z,99846.89
2019-04-04T00:33:08.934Z,99856.41
2019-04-04T00:35:37.632Z,99854.14
2019-04-04T00:38:07.137Z,99845.02
2019-04-04T00:40:36.475Z,99843.69
2019-04-04T00:43:05.499Z,99836.91
2019-04-04T00:45:38.198Z,99829.11
2019-04-04T00:48:06.827Z,99822.68
2019-04-04T00:50:36.725Z,99818.83
2019-04-04T00:53:05.954Z,99816.95
2019-04-04T00:55:34.951Z,99819.22
2019-04-04T00:58:03.679Z,99827.39
2019-04-04T01:00:32.655Z,99819.66
2019-04-04T01:03:01.662Z,99821.33
2019-04-04T01:05:32.129Z,99820.47
2019-04-04T01:08:01.578Z,99823.91
2019-04-04T01:10:30.474Z,99822.16
2019-04-04T01:12:59.116Z,99816.53
2019-04-04T01:15:29.028Z,99820.03
2019-04-04T01:17:58.422Z,99824.89
2019-04-04T01:20:27.082Z,99817.64
2019-04-04T01:22:56.728Z,99815.44
2019-04-04T01:25:25.374Z,99811.58
2019-04-04T01:27:54.009Z,99805.99
2019-04-04T01:30:22.937Z,99799.59
2019-04-04T01:32:51.558Z,99796.59
2019-04-04T01:35:22.440Z,99791.48
2019-04-04T01:37:51.758Z,99796.58
2019-04-04T01:40:20.733Z,99803.07
2019-04-04T01:42:49.951Z,99794.02
2019-04-04T01:45:18.598Z,99800.13
2019-04-04T01:47:47.970Z,99801.92
2019-04-04T01:50:17.754Z,99801.92
2019-04-04T01:52:46.744Z,99792.46
2019-04-04T01:55:15.357Z,99802.13
2019-04-04T01:57:44.318Z,99800.39
2019-04-04T02:00:15.232Z,99802.11
2019-04-04T02:02:44.361Z,99797.38
2019-04-04T02:05:13.357Z,99799.58
2019-04-04T02:07:42.273Z,99801.80
2019-04-04T02:10:11.437Z,99804.83
2019-04-04T02:12:40.373Z,99799.20
2019-04-04T02:15:09.632Z,99794.89
2019-04-04T02:17:38.597Z,99794.52
2019-04-04T02:20:08.059Z,99792.81
2019-04-04T02:22:36.863Z,99790.72
2019-04-04T02:25:05.737Z,99781.26
2019-04-04T02:27:37.629Z,99779.98
2019-04-04T02:30:06.504Z,99776.55
2019-04-04T02:32:35.771Z,99778.28
2019-04-04T02:35:04.863Z,99777.83
2019-04-04T02:37:33.759Z,99766.97
2019-04-04T02:40:02.666Z,99772.61
2019-04-04T02:42:31.298Z,99774.81
2019-04-04T02:45:00.250Z,99780.37
2019-04-04T02:47:28.935Z,99794.66
2019-04-04T02:50:00.624Z,99796.02
2019-04-04T02:52:28.221Z,99796.08
2019-04-04T02:54:58.417Z,99788.34
2019-04-04T02:57:27.415Z,99782.30
2019-04-04T02:59:56.436Z,99778.94
2019-04-04T03:02:25.317Z,99772.91
2019-04-04T03:04:54.523Z,99772.89
2019-04-04T03:07:23.503Z,99778.84
2019-04-04T03:09:52.526Z,99773.21
2019-04-04T03:12:21.188Z,99765.06
2019-04-04T03:14:50.826Z,99759.63
2019-04-04T03:17:19.629Z,99752.75
2019-04-04T03:19:48.891Z,99756.98
2019-04-04T03:22:17.901Z,99762.59
2019-04-04T03:24:46.782Z,99767.79
2019-04-04T03:27:15.403Z,99764.80
2019-04-04T03:29:44.361Z,99767.88
2019-04-04T03:32:14.426Z,99765.72
2019-04-04T03:34:49.768Z,99767.93
2019-04-04T03:37:14.022Z,99765.34
2019-04-04T03:39:42.996Z,99767.07
2019-04-04T03:42:11.682Z,99758.41
2019-04-04T03:44:40.286Z,99761.88
2019-04-04T03:47:10.577Z,99761.04
2019-04-04T03:49:39.960Z,99752.39
2019-04-04T03:52:11.302Z,99756.78
2019-04-04T03:54:39.314Z,99763.68
2019-04-04T03:57:11.113Z,99777.90
2019-04-04T03:59:38.351Z,99772.71
2019-04-04T04:02:07.423Z,99755.94
2019-04-04T04:04:36.312Z,99763.73
2019-04-04T04:07:05.202Z,99766.82
2019-04-04T04:09:34.157Z,99765.52
2019-04-04T04:12:03.434Z,99769.44
2019-04-04T04:14:32.695Z,99762.11
2019-04-04T04:17:02.009Z,99764.30
2019-04-04T04:19:31.467Z,99766.52
2019-04-04T04:22:00.528Z,99764.37
2019-04-04T04:24:30.327Z,99767.02
2019-04-04T04:26:59.309Z,99778.21
2019-04-04T04:29:29.878Z,99782.93
2019-04-04T04:31:58.610Z,99789.44
2019-04-04T04:34:27.479Z,99780.80
2019-04-04T04:36:56.411Z,99792.05
2019-04-04T04:39:25.309Z,99800.65
2019-04-04T04:41:54.454Z,99796.77
2019-04-04T04:44:23.133Z,99797.66
2019-04-04T04:46:52.076Z,99797.23
2019-04-04T04:49:23.298Z,99793.78
2019-04-04T04:51:51.406Z,99801.58
2019-04-04T04:54:22.685Z,99801.58
2019-04-04T04:56:51.017Z,99798.13
2019-04-04T04:59:19.906Z,99796.44
2019-04-04T05:01:50.548Z,99796.44
2019-04-04T05:04:19.597Z,99806.34
2019-04-04T05:06:48.227Z,99806.34
2019-04-04T05:09:17.445Z,99801.61
2019-04-04T05:11:48.087Z,99803.31
2019-04-04T05:14:17.901Z,99798.53
2019-04-04T05:16:46.860Z,99798.97
2019-04-04T05:19:17.106Z,99796.39
2019-04-04T05:21:46.587Z,99786.03
2019-04-04T05:24:16.053Z,99784.73
2019-04-04T05:26:45.585Z,99780.41
2019-04-04T05:29:14.523Z,99775.64
2019-04-04T05:31:43.114Z,99776.05
2019-04-04T05:34:12.375Z,99779.89
2019-04-04T05:36:41.574Z,99785.89
2019-04-04T05:39:10.261Z,99784.98
2019-04-04T05:41:38.893Z,99783.66
2019-04-04T05:44:10.031Z,99787.08
2019-04-04T05:46:38.572Z,99781.02
2019-04-04T05:49:08.294Z,99780.59
2019-04-04T05:51:37.165Z,99777.07
2019-04-04T05:54:07.619Z,99770.52
2019-04-04T05:56:36.431Z,99777.84
2019-04-04T05:59:05.192Z,99775.19
2019-04-04T06:01:35.334Z,99779.03
2019-04-04T06:04:04.331Z,99781.56
2019-04-04T06:06:33.454Z,99783.63
2019-04-04T06:09:04.493Z,99789.64
2019-04-04T06:11:33.080Z,99792.18
2019-04-04T06:14:02.321Z,99805.13
2019-04-04T06:16:30.933Z,99797.31
2019-04-04T06:18:59.902Z,99798.08
2019-04-04T06:21:28.569Z,99797.19
2019-04-04T06:23:57.470Z,99803.98
2019-04-04T06:26:26.579Z,99815.56
2019-04-04T06:28:55.562Z,99815.55
2019-04-04T06:31:26.519Z,99815.42
2019-04-04T06:33:55.190Z,99813.59
2019-04-04T06:36:23.855Z,99798.95
2019-04-04T06:38:53.981Z,99797.16
2019-04-04T06:41:23.498Z,99800.64
2019-04-04T06:43:52.394Z,99798.84
2019-04-04T06:46:22.886Z,99802.69
2019-04-04T06:48:51.608Z,99804.86
2019-04-04T06:51:20.627Z,99809.96
2019-04-04T06:53:53.314Z,99811.66
2019-04-04T06:56:20.538Z,99801.58
2019-04-04T06:58:49.428Z,99807.06
2019-04-04T07:01:20.927Z,99804.76
2019-04-04T07:03:48.406Z,99817.64
2019-04-04T07:06:17.049Z,99805.00
2019-04-04T07:08:46.792Z,99803.19
2019-04-04T07:11:21.511Z,99794.96
2019-04-04T07:13:47.389Z,99808.26
2019-04-04T07:16:16.377Z,99801.07
2019-04-04T07:18:45.674Z,99801.07
2019-04-04T07:21:14.568Z,99797.41
2019-04-04T07:23:43.202Z,99795.62
2019-04-04T07:26:14.817Z,99797.63
2019-04-04T07:28:42.478Z,99792.30
2019-04-04T07:31:11.567Z,99798.06
2019-04-04T07:33:42.588Z,99800.70
2019-04-04T07:36:11.197Z,99800.34
2019-04-04T07:38:39.846Z,99797.71
2019-04-04T07:41:09.169Z,99808.00
2019-04-04T07:43:39.414Z,99799.62
2019-04-04T07:46:16.123Z,99796.83
2019-04-04T07:48:38.731Z,99794.23
2019-04-04T07:51:07.717Z,99788.60
2019-04-04T07:53:37.054Z,99786.95
2019-04-04T07:56:06.845Z,99781.75
2019-04-04T07:58:35.489Z,99789.66
2019-04-04T08:01:04.521Z,99779.33
2019-04-04T08:03:33.140Z,99775.73
2019-04-04T08:06:02.104Z,99777.94
2019-04-04T08:08:31.388Z,99778.25
2019-04-04T08:11:00.353Z,99779.39
2019-04-04T08:13:28.987Z,99768.80
2019-04-04T08:15:57.660Z,99776.06
2019-04-04T08:18:29.327Z,99774.26
2019-04-04T08:20:57.981Z,99764.92
2019-04-04T08:23:26.870Z,99774.11
2019-04-04T08:25:55.491Z,99762.63
2019-04-04T08:28:24.464Z,99772.72
2019-04-04T08:30:53.098Z,99765.51
2019-04-04T08:33:22.040Z,99761.90
2019-04-04T08:35:50.933Z,99771.45
2019-04-04T08:38:20.386Z,99774.44
2019-04-04T08:40:49.087Z,99774.89
2019-04-04T08:43:18.024Z,99777.19
2019-04-04T08:45:47.018Z,99782.56
2019-04-04T08:48:16.002Z,99780.20
2019-04-04T08:50:45.305Z,99786.27
2019-04-04T08:53:13.916Z,99790.78
2019-04-04T08:55:43.188Z,99789.06
2019-04-04T08:58:12.799Z,99778.52
2019-04-04T09:00:42.099Z,99793.55
2019-04-04T09:03:11.024Z,99792.14
2019-04-04T09:05:39.988Z,99788.97
2019-04-04T09:08:09.283Z,99791.27
2019-04-04T09:10:38.278Z,99781.68
2019-04-04T09:13:07.481Z,99798.30
2019-04-04T09:15:36.470Z,99797.98
2019-04-04T09:18:05.201Z,99792.63
2019-04-04T09:20:33.819Z,99800.90
2019-04-04T09:23:02.434Z,99797.76
2019-04-04T09:25:31.422Z,99801.06
2019-04-04T09:28:00.330Z,99797.30
2019-04-04T09:30:29.409Z,99797.97
2019-04-04T09:32:58.404Z,99797.50
2019-04-04T09:35:27.122Z,99793.05
2019-04-04T09:37:55.765Z,99790.28
2019-04-04T09:40:24.668Z,99789.11
2019-04-04T09:42:53.968Z,99791.52
2019-04-04T09:45:22.973Z,99782.44
2019-04-04T09:47:51.942Z,99781.52
2019-04-04T09:50:20.563Z,99777.36
2019-04-04T09:52:49.841Z,99778.23
2019-04-04T09:55:18.833Z,99789.33
2019-04-04T09:57:48.136Z,99794.98
2019-04-04T10:00:18.543Z,99791.82
2019-04-04T10:02:47.764Z,99788.70
2019-04-04T10:05:16.754Z,99781.35
2019-04-04T10:07:45.747Z,99784.33
2019-04-04T10:10:16.665Z,99784.52
2019-04-04T10:12:45.686Z,99782.94
2019-04-04T10:15:14.473Z,99784.02
2019-04-04T10:17:43.975Z,99782.85
2019-04-04T10:20:13.074Z,99786.13
2019-04-04T10:22:42.075Z,99779.05
2019-04-04T10:25:10.869Z,99787.98
2019-04-04T10:27:39.853Z,99787.06
2019-04-04T10:30:09.105Z,99778.07
2019-04-04T10:32:38.040Z,99782.64
2019-04-04T10:35:06.787Z,99775.67
2019-04-04T10:37:35.721Z,99774.82
2019-04-04T10:40:05.177Z,99779.77
2019-04-04T10:42:34.117Z,99773.14
2019-04-04T10:45:02.753Z,99772.91
2019-04-04T10:47:31.395Z,99769.44
2019-04-04T10:50:00.382Z,99767.28
2019-04-04T10:52:29.276Z,99768.21
2019-04-04T10:55:01.323Z,99753.95
2019-04-04T10:57:29.104Z,99747.17
2019-04-04T10:59:58.086Z,99760.32
2019-04-04T11:02:26.729Z,99761.61
2019-04-04T11:04:55.675Z,99759.38
2019-04-04T11:07:24.659Z,99759.75
2019-04-04T11:09:53.282Z,99750.42
2019-04-04T11:12:21.960Z,99751.26
2019-04-04T11:14:50.939Z,99749.63
2019-04-04T11:17:19.826Z,99748.77
2019-04-04T11:19:48.824Z,99754.05
2019-04-04T11:22:17.712Z,99742.02
2019-04-04T11:24:46.908Z,99749.70
2019-04-04T11:27:17.481Z,99750.43
2019-04-04T11:29:46.534Z,99752.74
2019-04-04T11:32:15.546Z,99745.80
2019-04-04T11:34:53.173Z,99744.64
2019-04-04T11:37:14.966Z,99749.72
2019-04-04T11:39:54.055Z,99744.20
2019-04-04T11:42:14.271Z,99745.29
2019-04-04T11:44:42.902Z,99745.14
2019-04-04T11:47:12.156Z,99755.72
2019-04-04T11:49:41.044Z,99758.04
2019-04-04T11:52:10.038Z,99747.83
2019-04-04T11:54:57.230Z,99748.95
2019-04-04T11:57:26.258Z,99739.86
2019-04-04T11:59:54.950Z,99752.66
2019-04-04T12:02:24.121Z,99749.16
2019-04-04T12:04:52.847Z,99746.88
2019-04-04T12:07:21.471Z,99754.22
2019-04-04T12:09:50.202Z,99743.50
2019-04-04T12:12:18.905Z,99746.23
2019-04-04T12:14:47.525Z,99745.00
2019-04-04T12:17:16.493Z,99749.26
2019-04-04T12:19:45.135Z,99736.41
2019-04-04T12:22:14.040Z,99740.75
2019-04-04T12:24:42.673Z,99728.84
2019-04-04T12:27:11.928Z,99727.91
2019-04-04T12:29:41.231Z,99720.97
2019-04-04T12:32:10.128Z,99725.28
2019-04-04T12:34:39.418Z,99724.23
2019-04-04T12:37:08.402Z,99719.41
2019-04-04T12:39:37.407Z,99722.52
2019-04-04T12:42:06.114Z,99709.98
2019-04-04T12:44:35.087Z,99714.37
2019-04-04T12:47:04.084Z,99712.47
2019-04-04T12:49:32.706Z,99709.21
2019-04-04T12:52:01.666Z,99711.45
2019-04-04T12:54:30.312Z,99717.05
2019-04-04T12:56:59.257Z,99718.27
2019-04-04T12:59:28.229Z,99717.61
2019-04-04T13:01:57.533Z,99721.16
2019-04-04T13:04:31.663Z,99712.59
2019-04-04T13:06:57.158Z,99712.22
2019-04-04T13:09:26.155Z,99726.20
2019-04-04T13:11:54.799Z,99721.44
2019-04-04T13:14:23.583Z,99728.48
2019-04-04T13:16:52.830Z,99727.41
2019-04-04T13:19:21.717Z,99735.38
2019-04-04T13:21:50.358Z,99728.59
2019-04-04T13:24:19.912Z,99726.28
2019-04-04T13:26:48.893Z,99724.19
2019-04-04T13:29:17.826Z,99723.18
2019-04-04T13:31:46.450Z,99719.47
2019-04-04T13:34:15.374Z,99731.55
2019-04-04T13:36:44.023Z,99734.25
2019-04-04T13:39:12.659Z,99721.94
2019-04-04T13:41:41.294Z,99732.63
2019-04-04T13:44:10.336Z,99727.44
2019-04-04T13:46:39.333Z,99729.89
2019-04-04T13:49:08.625Z,99730.37
2019-04-04T13:51:37.342Z,99728.95
2019-04-04T13:54:05.989Z,99728.16
2019-04-04T13:56:34.724Z,99732.92
2019-04-04T13:59:05.926Z,99730.28
2019-04-04T14:01:34.130Z,99738.42
2019-04-04T14:04:03.080Z,99741.00
2019-04-04T14:06:32.097Z,99738.25
2019-04-04T14:09:01.391Z,99737.14
2019-04-04T14:11:30.688Z,99739.08
2019-04-04T14:13:59.581Z,99738.32
2019-04-04T14:16:28.190Z,99738.66
2019-04-04T14:18:57.463Z,99740.18
2019-04-04T14:21:26.111Z,99743.47
2019-04-04T14:23:56.843Z,99742.14
2019-04-04T14:26:25.478Z,99747.39
2019-04-04T14:28:54.133Z,99747.67
2019-04-04T14:31:23.057Z,99750.58
2019-04-04T14:33:51.660Z,99746.59
2019-04-04T14:36:20.624Z,99759.25
2019-04-04T14:38:49.508Z,99750.58
2019-04-04T14:41:18.512Z,99754.78
2019-04-04T14:43:47.400Z,99755.78
2019-04-04T14:46:18.550Z,99740.88
2019-04-04T14:48:47.200Z,99749.97
2019-04-04T14:51:16.541Z,99751.58
2019-04-04T14:53:45.158Z,99748.93
2019-04-04T14:56:14.741Z,99746.86
2019-04-04T14:58:43.708Z,99745.09
2019-04-04T15:01:13.326Z,99743.50
2019-04-04T15:03:42.423Z,99741.94
2019-04-04T15:06:11.508Z,99742.80
2019-04-04T15:08:40.721Z,99740.98
2019-04-04T15:11:09.349Z,99739.21
2019-04-04T15:13:37.995Z,99735.49
2019-04-04T15:16:16.877Z,99735.58
2019-04-04T15:18:46.420Z,99745.05
2019-04-04T15:21:16.161Z,99738.07
2019-04-04T15:23:45.128Z,99744.11
2019-04-04T15:26:14.018Z,99747.70
2019-04-04T15:28:43.336Z,99748.16
2019-04-04T15:31:12.323Z,99749.55
2019-04-04T15:33:41.613Z,99751.52
2019-04-04T15:36:10.226Z,99749.01
2019-04-04T15:38:39.308Z,99754.72
2019-04-04T15:41:08.287Z,99746.86
2019-04-04T15:43:37.709Z,99752.58
2019-04-04T15:46:06.684Z,99762.00
2019-04-04T15:48:35.322Z,99765.13
2019-04-04T15:51:04.570Z,99761.53
2019-04-04T15:53:33.177Z,99760.75
2019-04-04T15:56:01.805Z,99764.95
2019-04-04T15:58:30.456Z,99767.67
2019-04-04T16:00:59.082Z,99769.58
2019-04-04T16:03:28.310Z,99776.63
2019-04-04T16:05:57.199Z,99772.32
2019-04-04T16:08:26.094Z,99773.90
2019-04-04T16:10:55.019Z,99773.78
2019-04-04T16:13:23.974Z,99777.22
2019-04-04T16:15:52.964Z,99771.81
2019-04-04T16:18:21.861Z,99776.22
2019-04-04T16:20:50.512Z,99779.25
2019-04-04T16:23:19.150Z,99770.94
2019-04-04T16:25:48.329Z,99783.16
2019-04-04T16:28:17.324Z,99783.28
2019-04-04T16:30:46.210Z,99788.25
2019-04-04T16:33:15.107Z,99792.46
2019-04-04T16:35:44.113Z,99788.23
2019-04-04T16:38:12.838Z,99799.95
2019-04-04T16:40:41.426Z,99793.94
2019-04-04T16:43:10.396Z,99787.68
2019-04-04T16:45:39.366Z,99789.30
2019-04-04T16:48:07.986Z,99787.11
2019-04-04T16:50:36.938Z,99795.68
2019-04-04T16:53:05.932Z,99794.18
2019-04-04T16:55:34.801Z,99793.76
2019-04-04T16:58:03.448Z,99791.20
2019-04-04T17:00:32.297Z,99797.78
2019-04-04T17:03:01.197Z,99795.00
2019-04-04T17:05:30.284Z,99796.38
2019-04-04T17:07:59.181Z,99806.59
2019-04-04T17:10:28.367Z,99799.97
2019-04-04T17:12:57.372Z,99807.98
2019-04-04T17:15:26.518Z,99810.92
2019-04-04T17:17:55.470Z,99808.13
2019-04-04T17:20:24.454Z,99813.91
2019-04-04T17:22:53.450Z,99807.98
2019-04-04T17:25:22.338Z,99813.09
2019-04-04T17:27:51.538Z,99822.80
2019-04-04T17:30:20.867Z,99825.41
2019-04-04T17:32:50.310Z,99828.44
2019-04-04T17:35:19.253Z,99824.20
2019-04-04T17:37:48.127Z,99820.39
2019-04-04T17:40:18.295Z,99828.55
2019-04-04T17:42:47.531Z,99828.20
2019-04-04T17:45:16.551Z,99828.84
2019-04-04T17:47:45.290Z,99832.59
2019-04-04T17:50:17.589Z,99838.27
2019-04-04T17:52:45.159Z,99836.34
2019-04-04T17:55:14.568Z,99841.63
2019-04-04T17:57:43.577Z,99849.37
2019-04-04T18:00:13.268Z,99849.04
2019-04-04T18:02:41.920Z,99850.93
2019-04-04T18:05:10.641Z,99847.97
2019-04-04T18:07:39.576Z,99856.97
2019-04-04T18:10:08.599Z,99856.23
2019-04-04T18:12:40.617Z,99856.67
2019-04-04T18:15:08.360Z,99866.48
2019-04-04T18:17:37.042Z,99871.34
2019-04-04T18:20:06.828Z,99871.91
2019-04-04T18:22:35.784Z,99872.59
2019-04-04T18:25:04.974Z,99872.20
2019-04-04T18:27:33.918Z,99882.64
2019-04-04T18:30:02.550Z,99889.36
2019-04-04T18:32:31.525Z,99888.09
2019-04-04T18:35:00.529Z,99895.00
2019-04-04T18:37:29.187Z,99893.03
2019-04-04T18:39:57.790Z,99893.43
2019-04-04T18:42:26.774Z,99900.66
2019-04-04T18:44:55.455Z,99911.02
2019-04-04T18:47:24.607Z,99917.66
2019-04-04T18:49:53.555Z,99922.76
2019-04-04T18:52:22.547Z,99923.66
2019-04-04T18:54:51.542Z,99929.09
2019-04-04T18:57:20.438Z,99930.21
2019-04-04T18:59:49.084Z,99938.83
2019-04-04T19:02:18.424Z,99931.42
2019-04-04T19:04:47.843Z,99934.13
2019-04-04T19:07:16.491Z,99941.28
2019-04-04T19:09:45.215Z,99940.53
2019-04-04T19:12:14.499Z,99939.98
2019-04-04T19:14:43.397Z,99939.46
2019-04-04T19:17:12.282Z,99944.20
2019-04-04T19:19:40.919Z,99949.17
2019-04-04T19:22:10.274Z,99941.88
2019-04-04T19:24:38.950Z,99941.03
2019-04-04T19:27:08.355Z,99941.30
2019-04-04T19:29:37.255Z,99940.25
2019-04-04T19:32:05.958Z,99948.28
2019-04-04T19:34:35.133Z,99950.91
2019-04-04T19:37:03.767Z,99951.48
2019-04-04T19:39:32.422Z,99949.86
2019-04-04T19:42:01.494Z,99949.59
2019-04-04T19:44:30.698Z,99949.72
2019-04-04T19:46:59.691Z,99953.97
2019-04-04T19:49:28.892Z,99950.02
2019-04-04T19:51:57.781Z,99959.78
2019-04-04T19:54:26.773Z,99953.61
2019-04-04T19:56:56.180Z,99959.25
2019-04-04T19:59:24.822Z,99957.52
2019-04-04T20:01:53.766Z,99961.08
2019-04-04T20:04:22.687Z,99954.55
2019-04-04T20:06:51.641Z,99955.03
2019-04-04T20:09:20.537Z,99959.06
2019-04-04T20:11:49.527Z,99962.94
2019-04-04T20:14:18.731Z,99962.05
2019-04-04T20:16:47.621Z,99957.52
2019-04-04T20:19:16.725Z,99960.78
2019-04-04T20:21:45.698Z,99963.70
2019-04-04T20:24:14.750Z,99963.21
2019-04-04T20:26:43.405Z,99964.66
2019-04-04T20:29:12.390Z,99966.67
2019-04-04T20:31:41.684Z,99972.55
2019-04-04T20:34:10.326Z,99970.63
2019-04-04T20:36:38.967Z,99964.72
2019-04-04T20:39:07.987Z,99962.18
2019-04-04T20:41:36.603Z,99975.33
2019-04-04T20:44:05.625Z,99969.25
2019-04-04T20:46:34.306Z,99976.64
2019-04-04T20:49:02.992Z,99976.84
2019-04-04T20:51:31.716Z,99966.41
2019-04-04T20:54:00.682Z,99965.95
2019-04-04T20:56:29.678Z,99979.83
2019-04-04T20:58:58.283Z,99973.80
2019-04-04T21:01:27.257Z,99976.41
2019-04-04T21:03:55.897Z,99983.43
2019-04-04T21:06:24.829Z,99984.86
2019-04-04T21:08:53.480Z,99986.76
2019-04-04T21:11:22.106Z,99986.84
2019-04-04T21:13:56.499Z,99990.82
2019-04-04T21:16:21.411Z,99987.09
2019-04-04T21:18:50.304Z,99989.05
2019-04-04T21:21:18.955Z,99982.67
2019-04-04T21:23:48.196Z,99988.16
2019-04-04T21:26:17.087Z,99987.83
2019-04-04T21:28:46.091Z,99997.50
2019-04-04T21:31:14.713Z,100002.29
2019-04-04T21:33:43.662Z,100005.59
2019-04-04T21:36:12.657Z,100006.67
2019-04-04T21:38:41.555Z,100002.27
2019-04-04T21:41:10.540Z,100004.95
2019-04-04T21:43:39.754Z,100001.43
2019-04-04T21:46:08.738Z,100003.59
2019-04-04T21:48:38.037Z,100015.12
2019-04-04T21:51:06.760Z,100014.06
2019-04-04T21:53:35.711Z,100011.66
2019-04-04T21:56:04.720Z,100017.90
2019-04-04T21:58:34.012Z,100016.92
2019-04-04T22:01:02.941Z,100023.23
2019-04-04T22:03:31.894Z,100032.42
2019-04-04T22:06:00.956Z,100028.48
2019-04-04T22:08:29.879Z,100029.91
2019-04-04T22:10:58.552Z,100027.16
2019-04-04T22:13:27.767Z,100028.39
2019-04-04T22:15:56.657Z,100034.56
2019-04-04T22:18:25.594Z,100032.33
2019-04-04T22:20:54.541Z,100035.81
2019-04-04T22:23:23.535Z,100036.39
2019-04-04T22:25:52.427Z,100035.77
2019-04-04T22:28:21.318Z,100038.56
2019-04-04T22:30:49.937Z,100038.28
2019-04-04T22:33:18.608Z,100038.73
2019-04-04T22:35:47.208Z,100040.65
2019-04-04T22:38:16.164Z,100040.16
2019-04-04T22:40:45.370Z,100040.92
2019-04-04T22:43:14.007Z,100041.95
2019-04-04T22:45:43.247Z,100043.66
2019-04-04T22:48:12.552Z,100046.16
2019-04-04T22:50:41.193Z,100049.58
2019-04-04T22:53:10.437Z,100049.42
2019-04-04T22:55:39.061Z,100048.34
2019-04-04T22:58:08.002Z,100047.00
2019-04-04T23:00:36.904Z,100040.43
2019-04-04T23:03:07.342Z,100049.78
2019-04-04T23:05:36.224Z,100047.63
2019-04-04T23:08:07.537Z,100048.53
2019-04-04T23:10:35.598Z,100056.41
2019-04-04T23:13:04.851Z,100060.72
2019-04-04T23:15:33.476Z,100062.12
2019-04-04T23:18:02.526Z,100063.30
2019-04-04T23:20:31.150Z,100065.86
2019-04-04T23:23:01.330Z,100061.44
2019-04-04T23:25:30.426Z,100067.91
2019-04-04T23:27:59.045Z,100063.91
2019-04-04T23:30:27.700Z,100060.84
2019-04-04T23:32:56.700Z,100059.20
2019-04-04T23:35:25.652Z,100051.77
2019-04-04T23:37:54.576Z,100061.39
2019-04-04T23:40:23.571Z,100061.41
2019-04-04T23:42:52.466Z,100060.23
2019-04-04T23:45:21.469Z,100056.64
2019-04-04T23:47:50.119Z,100055.83
2019-04-04T23:50:19.153Z,100061.41
2019-04-04T23:52:48.335Z,100067.91
2019-04-04T23:55:16.988Z,100063.02
2019-04-04T23:57:46.507Z,100062.03
